Flugplatz Allendorf/Eder

Für EDFQ sind keine METAR/TAF Berichte vorhanden.
Es werden die Flugwettermeldungen vom Flugplatz Fritzlar Airport in 43 km Entfernung angezeigt.

Bericht für ETHF

vom 25.10. um 16:20 UTC

Wind 7 kt aus 210°

Sichtweite 10 km oder mehr

gering bewölkt in 15000 ft

aufgebrochene Bewölkung in 22000 ft

Temperatur 10.0°C

Taupunkt 6.0°C

Luftfeuchtigkeit 76%

Luftdruck 1018 hPa

ETHF 251620Z 21007KT 9999 FEW150 BKN220 10/06 Q1018 BLU+

Prognose für ETHF

vom 25.10. um 13:20 UTC

Zwischen 14:00 UTC und 23:00 UTC

Wind 5 kt aus 180°

Sichtweite 10 km oder mehr

keine signifikanten Wettererscheinungen

aufgelockert bewölkt in 5000 ft

aufgebrochene Bewölkung in 24000 ft

TAF ETHF 251320Z 2514/2523 18005KT 9999 NSW SCT050 BKN240
Impressum